Time;durP1;ratioP1;P1;durP2;ratioP2;P2;SDS_P1;SDS_P2;PMS_P1;PMS_P2;Temp;Humidity;BMP_temperature;BMP_pressure;BME280_temperature;BME280_humidity;BME280_pressure;Samples;Min_cycle;Max_cycle;Signal;HPM_P1;HPM_P2
2022/11/07 00:00:14;;;;;;;0.13;0.10;;;;;;;13.05;100.00;98119.72;7394375;19;20038;-58
2022/11/07 00:02:40;;;;;;;23.77;1.58;;;;;;;13.21;100.00;98112.34;7392869;19;20006;-58
2022/11/07 00:05:07;;;;;;;0.45;0.20;;;;;;;13.27;100.00;98108.16;7390012;19;20013;-59
2022/11/07 00:07:33;;;;;;;0.20;0.20;;;;;;;13.41;100.00;98112.44;7390980;19;20014;-58
2022/11/07 00:09:59;;;;;;;0.45;0.45;;;;;;;13.51;100.00;98118.38;7392855;19;20452;-58
2022/11/07 00:12:25;;;;;;;0.32;0.30;;;;;;;13.42;100.00;98116.00;7392027;19;20034;-58
2022/11/07 00:14:51;;;;;;;0.10;0.10;;;;;;;13.45;100.00;98118.47;7391510;19;20011;-56
2022/11/07 00:17:18;;;;;;;0.10;0.10;;;;;;;13.53;100.00;98119.34;7389773;19;20364;-57
2022/11/07 00:19:44;;;;;;;0.30;0.10;;;;;;;13.57;100.00;98119.78;7393123;19;20035;-57
2022/11/07 00:22:10;;;;;;;3.22;0.75;;;;;;;13.56;100.00;98111.91;7391317;19;20021;-58
2022/11/07 00:24:36;;;;;;;0.10;0.10;;;;;;;13.74;100.00;98113.09;7392459;19;20051;-56
2022/11/07 00:27:02;;;;;;;0.20;0.20;;;;;;;13.77;100.00;98118.38;7392498;19;20011;-57
2022/11/07 00:29:28;;;;;;;7.63;0.63;;;;;;;13.89;100.00;98121.69;7396190;19;20010;-57
2022/11/07 00:31:54;;;;;;;1.95;0.43;;;;;;;13.93;100.00;98113.72;7394111;19;20015;-56
2022/11/07 00:34:20;;;;;;;0.45;0.10;;;;;;;13.74;100.00;98118.69;7396548;19;20478;-57
2022/11/07 00:36:46;;;;;;;1.02;0.35;;;;;;;13.55;100.00;98116.78;7391734;19;20018;-58
2022/11/07 00:39:13;;;;;;;0.10;0.10;;;;;;;13.43;100.00;98117.50;7391607;19;20515;-57
2022/11/07 00:41:39;;;;;;;0.75;0.55;;;;;;;13.28;100.00;98126.41;7395756;19;20070;-56
2022/11/07 00:44:05;;;;;;;0.10;0.10;;;;;;;13.21;100.00;98129.84;7391628;19;20394;-57
2022/11/07 00:46:31;;;;;;;1.25;0.50;;;;;;;13.07;100.00;98122.75;7391964;19;20011;-57
2022/11/07 00:48:57;;;;;;;0.10;0.10;;;;;;;12.96;100.00;98117.31;7391344;19;20002;-57
2022/11/07 00:51:26;;;;;;;2.53;0.25;;;;;;;12.89;100.00;98120.72;7395241;19;20018;-57
2022/11/07 00:53:52;;;;;;;0.10;0.05;;;;;;;12.78;100.00;98118.88;7393048;19;20014;-57
2022/11/07 00:56:22;;;;;;;0.10;0.10;;;;;;;12.64;100.00;98130.53;7392444;19;20022;-57
2022/11/07 00:58:53;;;;;;;1.30;0.50;;;;;;;12.62;100.00;98127.53;7394938;19;20062;-57
2022/11/07 01:01:22;;;;;;;0.10;0.10;;;;;;;12.57;100.00;98137.50;7395059;19;20094;-57
2022/11/07 01:06:35;;;;;;;0.10;0.10;;;;;;;12.60;100.00;98141.25;7391562;19;20495;-57
2022/11/07 01:09:03;;;;;;;1.08;0.57;;;;;;;12.56;100.00;98140.81;7389841;19;20010;-57
2022/11/07 01:11:29;;;;;;;0.95;0.35;;;;;;;12.55;100.00;98145.66;7394004;19;20043;-57
2022/11/07 01:13:57;;;;;;;0.10;0.10;;;;;;;12.67;100.00;98146.22;7390554;19;20010;-57
2022/11/07 01:16:24;;;;;;;0.57;0.57;;;;;;;12.65;100.00;98143.19;7391145;19;20014;-57
2022/11/07 01:18:51;;;;;;;1.55;0.30;;;;;;;12.59;100.00;98148.13;7391292;19;20460;-57
2022/11/07 01:21:17;;;;;;;0.60;0.30;;;;;;;12.54;100.00;98148.97;7393141;19;20014;-57
2022/11/07 01:23:44;;;;;;;0.82;0.75;;;;;;;12.48;100.00;98151.06;7389764;19;20007;-57
2022/11/07 01:26:12;;;;;;;0.30;0.30;;;;;;;12.44;100.00;98161.78;7388722;19;20012;-57
2022/11/07 01:28:39;;;;;;;1.85;0.45;;;;;;;12.44;100.00;98151.38;7392907;19;20371;-57
2022/11/07 01:31:07;;;;;;;0.47;0.47;;;;;;;12.36;100.00;98160.91;7391023;19;20040;-57
2022/11/07 01:33:34;;;;;;;0.68;0.30;;;;;;;12.38;100.00;98164.69;7390499;19;20066;-57
2022/11/07 01:36:10;;;;;;;14.10;0.68;;;;;;;12.35;100.00;98162.94;7395346;19;20471;-57
2022/11/07 01:38:40;;;;;;;0.10;0.10;;;;;;;12.26;100.00;98159.78;7397585;19;20010;-57
2022/11/07 01:41:20;;;;;;;0.10;0.10;;;;;;;12.16;100.00;98165.72;7400514;19;20074;-57
2022/11/07 01:44:03;;;;;;;0.20;0.20;;;;;;;12.21;100.00;98166.94;7395476;19;20637;-57
2022/11/07 01:46:41;;;;;;;0.50;0.50;;;;;;;12.14;100.00;98162.72;7396526;19;20019;-57
2022/11/07 01:49:16;;;;;;;1.23;0.73;;;;;;;12.05;100.00;98149.13;7396753;19;20042;-56
2022/11/07 01:51:45;;;;;;;6.40;0.30;;;;;;;11.93;100.00;98153.31;7398892;19;20031;-57
2022/11/07 01:54:12;;;;;;;0.15;0.15;;;;;;;11.87;100.00;98158.22;7398827;19;20010;-57
2022/11/07 01:56:42;;;;;;;0.63;0.40;;;;;;;11.86;100.00;98159.53;7397409;19;20047;-57
2022/11/07 01:59:12;;;;;;;0.10;0.10;;;;;;;11.86;100.00;98164.34;7399997;19;20014;-57
2022/11/07 02:01:39;;;;;;;1.33;0.25;;;;;;;11.90;100.00;98154.41;7397943;19;20022;-57
2022/11/07 02:04:06;;;;;;;0.13;0.13;;;;;;;12.01;100.00;98159.84;7396733;19;20014;-57
2022/11/07 02:06:45;;;;;;;0.10;0.10;;;;;;;12.07;100.00;98162.53;7395550;19;20689;-57
2022/11/07 02:09:12;;;;;;;0.10;0.10;;;;;;;12.08;100.00;98164.81;7397542;19;20074;-57
2022/11/07 02:11:38;;;;;;;0.57;0.35;;;;;;;12.14;100.00;98168.28;7400747;19;20010;-57
2022/11/07 02:14:04;;;;;;;0.10;0.00;;;;;;;12.17;100.00;98172.06;7395625;19;20066;-57
2022/11/07 02:16:33;;;;;;;11.60;0.57;;;;;;;12.13;100.00;98171.59;7395497;19;20020;-57
2022/11/07 02:19:00;;;;;;;0.10;0.10;;;;;;;12.06;100.00;98170.16;7395924;19;20015;-57
2022/11/07 02:21:47;;;;;;;0.10;0.10;;;;;;;12.01;100.00;98173.78;7401416;19;20018;-57
2022/11/07 02:24:16;;;;;;;0.13;0.13;;;;;;;11.95;100.00;98161.91;7396614;19;20035;-57
2022/11/07 02:26:42;;;;;;;0.10;0.10;;;;;;;11.96;100.00;98163.44;7396391;19;20017;-57
2022/11/07 02:29:11;;;;;;;0.47;0.38;;;;;;;11.98;100.00;98158.09;7399435;19;20062;-57
2022/11/07 02:31:37;;;;;;;0.10;0.10;;;;;;;11.96;100.00;98160.66;7399303;19;20392;-57
2022/11/07 02:34:04;;;;;;;0.65;0.38;;;;;;;12.06;100.00;98155.47;7396083;19;20047;-57
2022/11/07 02:36:30;;;;;;;0.10;0.10;;;;;;;12.04;100.00;98153.19;7396276;19;20017;-57
2022/11/07 02:38:58;;;;;;;0.10;0.10;;;;;;;12.06;100.00;98147.84;7395711;19;20011;-57
2022/11/07 02:41:29;;;;;;;0.15;0.15;;;;;;;11.98;100.00;98144.13;7399874;19;20022;-57
2022/11/07 02:43:59;;;;;;;0.20;0.10;;;;;;;11.89;100.00;98144.50;7395686;19;20011;-57
2022/11/07 02:46:27;;;;;;;0.10;0.10;;;;;;;11.98;100.00;98155.31;7395179;19;20010;-58
2022/11/07 02:48:56;;;;;;;0.10;0.10;;;;;;;11.99;100.00;98158.84;7395771;19;20015;-57
2022/11/07 02:51:22;;;;;;;0.30;0.30;;;;;;;12.06;100.00;98156.22;7398993;19;20070;-57
2022/11/07 02:53:49;;;;;;;0.10;0.10;;;;;;;12.14;100.00;98145.97;7395597;19;20057;-57
2022/11/07 02:56:16;;;;;;;1.17;0.30;;;;;;;12.06;100.00;98152.69;7395883;19;20006;-57
2022/11/07 02:58:42;;;;;;;0.13;0.13;;;;;;;12.38;100.00;98153.50;7398420;19;20010;-57
2022/11/07 03:01:08;;;;;;;0.10;0.10;;;;;;;12.48;100.00;98148.28;7398928;19;20377;-57
2022/11/07 03:03:37;;;;;;;0.40;0.30;;;;;;;12.54;100.00;98146.91;7394697;19;20432;-57
2022/11/07 03:06:08;;;;;;;0.10;0.10;;;;;;;12.57;100.00;98142.31;7395770;19;20398;-57
2022/11/07 03:08:35;;;;;;;0.10;0.10;;;;;;;12.60;100.00;98152.44;7394970;19;20015;-57
2022/11/07 03:11:02;;;;;;;0.10;0.10;;;;;;;12.64;100.00;98147.28;7397287;19;20021;-57
2022/11/07 03:13:28;;;;;;;1.55;0.52;;;;;;;12.77;100.00;98150.91;7394107;19;20081;-57
2022/11/07 03:15:54;;;;;;;0.10;0.10;;;;;;;12.81;100.00;98156.16;7395455;19;20015;-57
2022/11/07 03:18:21;;;;;;;0.55;0.20;;;;;;;12.90;100.00;98141.78;7394692;19;20011;-57
2022/11/07 03:20:47;;;;;;;0.57;0.47;;;;;;;12.95;100.00;98150.06;7397762;19;20022;-57
2022/11/07 03:23:13;;;;;;;0.22;0.22;;;;;;;13.08;100.00;98152.19;7394442;19;20025;-57
2022/11/07 03:25:41;;;;;;;7.22;0.73;;;;;;;13.26;100.00;98154.16;7394177;19;20017;-57
2022/11/07 03:28:07;;;;;;;2.15;0.30;;;;;;;13.41;100.00;98146.00;7395647;19;20467;-57
2022/11/07 03:30:33;;;;;;;0.10;0.00;;;;;;;13.66;100.00;98149.38;7396049;19;20015;-57
2022/11/07 03:32:59;;;;;;;0.45;0.20;;;;;;;13.67;100.00;98140.44;7392723;19;20045;-58
2022/11/07 03:35:26;;;;;;;0.52;0.52;;;;;;;13.68;100.00;98152.38;7394097;19;20035;-58
2022/11/07 03:37:53;;;;;;;9.23;0.98;;;;;;;13.63;100.00;98156.78;7393452;19;20406;-57
2022/11/07 03:40:19;;;;;;;0.10;0.10;;;;;;;13.68;100.00;98147.53;7395447;19;20021;-57
2022/11/07 03:42:45;;;;;;;2.50;0.70;;;;;;;13.67;100.00;98151.63;7392151;19;20340;-57
2022/11/07 03:45:14;;;;;;;2.15;0.75;;;;;;;13.79;100.00;98157.00;7393436;19;20022;-57
2022/11/07 03:47:41;;;;;;;0.80;0.55;;;;;;;13.87;100.00;98149.44;7392895;19;20006;-57
2022/11/07 03:50:10;;;;;;;0.10;0.00;;;;;;;13.85;100.00;98140.84;7395093;19;20010;-57
2022/11/07 03:52:37;;;;;;;0.55;0.45;;;;;;;13.97;100.00;98150.53;7391517;19;20027;-57
2022/11/07 03:55:03;;;;;;;17.52;0.82;;;;;;;14.03;100.00;98148.38;7395668;19;20011;-57
2022/11/07 03:57:29;;;;;;;6.13;0.50;;;;;;;14.03;100.00;98149.13;7391683;19;20014;-57
2022/11/07 03:59:55;;;;;;;3.85;0.47;;;;;;;13.96;100.00;98138.59;7393445;19;20014;-57
2022/11/07 04:02:22;;;;;;;0.15;0.15;;;;;;;14.06;100.00;98148.03;7393278;19;20041;-57
2022/11/07 04:04:48;;;;;;;0.25;0.20;;;;;;;14.02;100.00;98139.22;7391775;19;20447;-57
2022/11/07 04:07:15;;;;;;;0.10;0.10;;;;;;;13.96;100.00;98146.22;7392213;19;20010;-58
2022/11/07 04:09:41;;;;;;;0.10;0.10;;;;;;;13.96;100.00;98143.41;7397038;19;20018;-57
2022/11/07 04:17:38;;;;;;;4.47;0.57;;;;;;;14.02;100.00;98147.63;7392825;19;20496;-57
2022/11/07 04:20:04;;;;;;;6.43;0.73;;;;;;;14.11;100.00;98146.41;7394241;19;20022;-57
2022/11/07 04:22:31;;;;;;;0.43;0.43;;;;;;;14.19;100.00;98155.66;7392760;19;20459;-58
2022/11/07 04:24:57;;;;;;;2.20;0.35;;;;;;;14.34;100.00;98144.66;7392595;19;20019;-57
2022/11/07 04:27:41;;;;;;;2.15;0.80;;;;;;;14.45;100.00;98147.22;7392798;19;20019;-57
2022/11/07 04:30:18;;;;;;;1.23;0.82;;;;;;;14.42;100.00;98153.91;7393974;19;20018;-58
2022/11/07 04:32:55;;;;;;;2.35;0.52;;;;;;;14.15;100.00;98146.84;7391546;19;20023;-57
2022/11/07 04:35:24;;;;;;;1.55;0.43;;;;;;;14.20;100.00;98157.16;7393156;19;20031;-57
2022/11/07 04:37:51;;;;;;;0.10;0.10;;;;;;;14.30;100.00;98138.63;7392618;19;20010;-58
2022/11/07 04:40:18;;;;;;;0.17;0.17;;;;;;;14.40;100.00;98148.84;7393287;19;20018;-57
2022/11/07 04:42:45;;;;;;;0.10;0.10;;;;;;;14.48;100.00;98151.75;7391503;19;20015;-58
2022/11/07 04:45:12;;;;;;;0.10;0.00;;;;;;;14.50;100.00;98151.19;7392030;19;20011;-58
2022/11/07 04:47:39;;;;;;;0.10;0.10;;;;;;;14.52;100.00;98152.16;7391590;19;20010;-57
2022/11/07 04:50:07;;;;;;;0.20;0.20;;;;;;;14.52;100.00;98146.56;7391239;19;20011;-58
2022/11/07 04:52:33;;;;;;;0.30;0.30;;;;;;;14.44;100.00;98152.06;7390602;19;20011;-57
2022/11/07 04:54:59;;;;;;;0.10;0.10;;;;;;;14.38;100.00;98150.69;7394630;19;20011;-58
2022/11/07 04:57:26;;;;;;;0.17;0.17;;;;;;;14.34;100.00;98159.41;7392292;19;20460;-58
2022/11/07 04:59:52;;;;;;;0.30;0.20;;;;;;;14.44;100.00;98160.47;7391828;19;20084;-57
2022/11/07 05:02:21;;;;;;;0.30;0.30;;;;;;;14.42;100.00;98162.31;7391348;19;20012;-57
2022/11/07 05:04:47;;;;;;;4.40;0.80;;;;;;;14.41;100.00;98161.56;7391004;19;20014;-58
2022/11/07 05:07:13;;;;;;;2.38;0.30;;;;;;;14.33;100.00;98154.38;7391113;19;20015;-57
2022/11/07 05:09:39;;;;;;;0.10;0.00;;;;;;;14.24;100.00;98152.75;7393169;19;20410;-57
2022/11/07 05:12:05;;;;;;;0.10;0.10;;;;;;;14.14;100.00;98153.75;7397330;19;20362;-58
2022/11/07 05:14:32;;;;;;;1.17;0.55;;;;;;;14.05;100.00;98148.59;7398209;19;20017;-57
2022/11/07 05:16:58;;;;;;;0.30;0.20;;;;;;;13.98;100.00;98147.19;7398920;19;20018;-58
2022/11/07 05:19:24;;;;;;;0.65;0.13;;;;;;;14.04;100.00;98158.25;7397680;19;20058;-57
2022/11/07 05:23:10;;;;;;;0.50;0.50;;;;;;;13.95;100.00;98162.25;7397568;19;20015;-57
2022/11/07 05:24:37;;;;;;;0.60;0.52;;;;;;;13.92;100.00;98148.59;7398756;19;20078;-57
2022/11/07 05:27:04;;;;;;;0.10;0.10;;;;;;;13.91;100.00;98158.28;7398580;19;20062;-57
2022/11/07 05:29:31;;;;;;;1.95;0.77;;;;;;;13.90;100.00;98162.38;7402062;19;20011;-58
2022/11/07 05:31:57;;;;;;;0.20;0.17;;;;;;;13.90;100.00;98163.13;7395988;19;20014;-58
2022/11/07 05:34:23;;;;;;;1.48;0.50;;;;;;;13.92;100.00;98165.38;7397763;19;20034;-57
2022/11/07 05:36:49;;;;;;;1.00;0.30;;;;;;;13.88;100.00;98164.97;7397206;19;20034;-57
2022/11/07 05:39:15;;;;;;;0.25;0.25;;;;;;;14.00;100.00;98163.44;7398168;19;20039;-57
2022/11/07 05:41:41;;;;;;;0.10;0.10;;;;;;;14.01;100.00;98162.16;7400216;19;20014;-58
2022/11/07 05:44:09;;;;;;;0.40;0.40;;;;;;;14.18;100.00;98159.75;7396522;19;20007;-58
2022/11/07 05:46:35;;;;;;;0.50;0.50;;;;;;;14.29;100.00;98156.75;7396527;19;20018;-79
2022/11/07 05:49:02;;;;;;;0.57;0.43;;;;;;;14.53;100.00;98150.84;7391934;19;20022;-80
2022/11/07 05:51:28;;;;;;;0.10;0.10;;;;;;;14.58;100.00;98152.03;7396612;19;20048;-80
2022/11/07 05:53:54;;;;;;;1.33;0.40;;;;;;;14.73;100.00;98152.94;7395693;19;20015;-80
2022/11/07 05:56:20;;;;;;;5.28;0.43;;;;;;;14.80;100.00;98162.72;7394552;19;20022;-79
2022/11/07 05:58:46;;;;;;;0.47;0.47;;;;;;;14.72;100.00;98157.06;7395695;19;20032;-79
2022/11/07 06:01:12;;;;;;;0.80;0.80;;;;;;;14.73;100.00;98158.53;7394332;19;20014;-80
2022/11/07 06:03:38;;;;;;;0.10;0.10;;;;;;;14.81;100.00;98156.56;7390889;19;20030;-81
2022/11/07 06:06:05;;;;;;;2.20;0.45;;;;;;;14.82;100.00;98165.72;7389868;19;20555;-80
2022/11/07 06:08:31;;;;;;;0.20;0.15;;;;;;;14.79;100.00;98161.97;7392054;19;20022;-80
2022/11/07 06:10:57;;;;;;;0.20;0.20;;;;;;;14.80;100.00;98163.47;7394100;19;20501;-81
2022/11/07 06:13:23;;;;;;;2.65;0.80;;;;;;;14.85;100.00;98159.03;7394439;19;20063;-80
2022/11/07 06:15:49;;;;;;;0.55;0.25;;;;;;;15.03;100.00;98164.44;7392160;19;20022;-80
2022/11/07 06:18:18;;;;;;;0.10;0.05;;;;;;;14.93;100.00;98166.22;7391248;19;20480;-80
2022/11/07 06:20:45;;;;;;;0.10;0.10;;;;;;;14.93;100.00;98166.22;7390704;19;20022;-80
2022/11/07 06:23:11;;;;;;;0.20;0.20;;;;;;;14.89;100.00;98160.22;7392441;19;20074;-80
2022/11/07 06:25:38;;;;;;;0.10;0.10;;;;;;;15.10;100.00;98166.56;7391385;19;20025;-80
2022/11/07 06:28:07;;;;;;;0.40;0.30;;;;;;;14.90;100.00;98161.69;7393691;19;20019;-80
2022/11/07 06:30:34;;;;;;;5.95;0.90;;;;;;;15.05;100.00;98164.63;7393946;19;20046;-80
2022/11/07 06:33:02;;;;;;;6.57;0.90;;;;;;;15.18;100.00;98161.75;7389673;19;20014;-81
2022/11/07 06:35:29;;;;;;;1.55;0.85;;;;;;;15.20;100.00;98167.56;7393591;19;20373;-80
2022/11/07 06:37:55;;;;;;;0.20;0.20;;;;;;;15.23;100.00;98159.38;7391762;19;20078;-80
2022/11/07 06:40:21;;;;;;;0.10;0.10;;;;;;;15.32;100.00;98156.06;7394082;19;20010;-80
2022/11/07 06:42:47;;;;;;;1.52;0.55;;;;;;;15.28;100.00;98156.44;7393648;19;20054;-80
2022/11/07 06:45:14;;;;;;;4.53;0.85;;;;;;;15.16;100.00;98167.16;7392720;19;20372;-80
2022/11/07 06:47:40;;;;;;;3.42;0.20;;;;;;;15.07;100.00;98164.84;7392119;19;20493;-80
2022/11/07 06:50:06;;;;;;;0.10;0.00;;;;;;;15.06;100.00;98162.59;7392950;19;20091;-80
2022/11/07 06:52:32;;;;;;;0.93;0.63;;;;;;;15.09;100.00;98156.63;7391604;19;20365;-80
2022/11/07 06:54:59;;;;;;;0.63;0.63;;;;;;;15.18;100.00;98156.16;7393996;19;20035;-80
2022/11/07 06:57:25;;;;;;;1.88;0.60;;;;;;;15.20;100.00;98161.22;7394908;19;20077;-80
2022/11/07 06:59:51;;;;;;;2.83;0.40;;;;;;;15.13;100.00;98157.06;7392257;19;20021;-80
2022/11/07 07:02:17;;;;;;;13.45;0.75;;;;;;;15.22;100.00;98157.88;7390855;19;20018;-79
2022/11/07 07:04:43;;;;;;;0.43;0.43;;;;;;;15.16;100.00;98155.94;7393096;19;20015;-79
2022/11/07 07:07:09;;;;;;;7.68;0.85;;;;;;;15.19;100.00;98160.47;7393099;19;20027;-79
2022/11/07 07:09:35;;;;;;;0.95;0.30;;;;;;;15.13;100.00;98162.69;7393072;19;20041;-80
2022/11/07 07:12:01;;;;;;;2.13;1.20;;;;;;;15.14;100.00;98157.78;7389162;19;20014;-79
2022/11/07 07:14:27;;;;;;;2.63;0.43;;;;;;;15.12;100.00;98169.56;7389174;19;20085;-79
2022/11/07 07:16:57;;;;;;;1.17;0.22;;;;;;;15.13;100.00;98168.28;7389214;19;20090;-79
2022/11/07 07:19:23;;;;;;;0.80;0.20;;;;;;;15.24;100.00;98169.28;7390558;19;20481;-79
2022/11/07 07:21:49;;;;;;;4.20;1.10;;;;;;;15.26;100.00;98169.50;7396039;19;20366;-81
2022/11/07 07:24:16;;;;;;;1.65;0.95;;;;;;;15.28;100.00;98178.88;7392136;19;20021;-81
2022/11/07 07:26:42;;;;;;;2.60;0.95;;;;;;;15.36;100.00;98162.09;7389602;19;20041;-80
2022/11/07 07:29:08;;;;;;;2.55;0.40;;;;;;;15.46;100.00;98177.19;7392064;19;20110;-80
2022/11/07 07:31:34;;;;;;;3.50;1.33;;;;;;;15.42;100.00;98179.56;7393779;19;20014;-80
2022/11/07 07:34:00;;;;;;;0.30;0.10;;;;;;;15.50;100.00;98180.38;7388160;19;20007;-81
2022/11/07 07:36:26;;;;;;;0.63;0.50;;;;;;;15.63;100.00;98180.28;7389785;19;20516;-80
2022/11/07 07:38:53;;;;;;;4.88;1.33;;;;;;;15.62;100.00;98184.38;7389770;19;20439;-83
2022/11/07 07:41:19;;;;;;;1.65;1.17;;;;;;;15.59;100.00;98180.63;7389832;19;20825;-80
2022/11/07 07:43:46;;;;;;;0.43;0.32;;;;;;;15.76;100.00;98183.00;7393925;19;20075;-80
2022/11/07 07:46:20;;;;;;;0.25;0.25;;;;;;;15.92;100.00;98178.97;7393181;19;20074;-80
2022/11/07 07:48:46;;;;;;;5.47;1.30;;;;;;;16.04;100.00;98168.94;7390871;19;20011;-80
2022/11/07 07:51:12;;;;;;;5.57;0.68;;;;;;;16.08;100.00;98186.19;7392584;19;20656;-80
2022/11/07 07:53:38;;;;;;;0.47;0.47;;;;;;;16.10;100.00;98183.56;7389757;19;20014;-80
2022/11/07 07:56:06;;;;;;;2.83;0.85;;;;;;;16.07;100.00;98179.06;7389539;19;20038;-80
2022/11/07 07:58:32;;;;;;;1.20;0.65;;;;;;;16.11;100.00;98196.31;7391353;19;20035;-80
2022/11/07 08:00:58;;;;;;;0.60;0.30;;;;;;;16.24;100.00;98193.38;7390907;19;20022;-80
2022/11/07 08:03:26;;;;;;;0.70;0.70;;;;;;;16.26;100.00;98196.41;7390548;19;20019;-81
2022/11/07 08:05:54;;;;;;;1.85;0.60;;;;;;;16.45;100.00;98194.03;7390907;19;20026;-80
2022/11/07 08:08:20;;;;;;;0.38;0.38;;;;;;;16.42;100.00;98191.56;7390393;19;20042;-80
2022/11/07 08:10:52;;;;;;;6.97;0.93;;;;;;;16.40;100.00;98192.13;7392650;19;20023;-81
2022/11/07 08:13:20;;;;;;;0.20;0.10;;;;;;;16.49;100.00;98191.63;7388478;19;20022;-80
2022/11/07 08:15:46;;;;;;;2.45;0.93;;;;;;;16.50;100.00;98193.13;7389929;19;20030;-80
2022/11/07 08:18:12;;;;;;;3.92;0.25;;;;;;;16.61;100.00;98195.63;7391465;19;20010;-80
2022/11/07 08:20:39;;;;;;;4.20;0.93;;;;;;;16.73;100.00;98189.66;7391837;19;20357;-80
2022/11/07 08:23:07;;;;;;;0.77;0.45;;;;;;;16.77;100.00;98187.97;7391205;19;20022;-81
2022/11/07 08:25:34;;;;;;;18.15;0.77;;;;;;;16.78;100.00;98199.97;7390881;19;20107;-80
2022/11/07 08:28:00;;;;;;;2.05;1.40;;;;;;;16.74;100.00;98199.59;7391285;19;20022;-81
2022/11/07 08:30:27;;;;;;;1.27;0.20;;;;;;;16.52;100.00;98198.22;7391134;19;20025;-80
2022/11/07 08:32:55;;;;;;;1.00;0.65;;;;;;;16.51;100.00;98200.28;7386966;19;20019;-80
2022/11/07 08:35:21;;;;;;;0.20;0.05;;;;;;;16.40;100.00;98194.94;7389413;19;20042;-80
2022/11/07 08:37:47;;;;;;;0.10;0.10;;;;;;;16.54;100.00;98204.78;7388017;19;20014;-80
2022/11/07 08:40:13;;;;;;;4.15;0.40;;;;;;;16.58;100.00;98205.19;7390000;19;20472;-80
2022/11/07 08:42:39;;;;;;;5.28;0.35;;;;;;;16.65;100.00;98200.88;7389693;19;20025;-79
2022/11/07 08:45:06;;;;;;;3.53;0.75;;;;;;;16.68;100.00;98200.50;7394165;19;20536;-80
2022/11/07 08:47:32;;;;;;;0.22;0.22;;;;;;;16.68;100.00;98206.13;7396478;19;20015;-80
2022/11/07 08:49:58;;;;;;;1.27;1.13;;;;;;;16.61;100.00;98198.41;7395818;19;20015;-80
2022/11/07 08:52:24;;;;;;;0.10;0.00;;;;;;;16.57;100.00;98200.09;7396429;19;20517;-82
2022/11/07 08:54:51;;;;;;;0.10;0.00;;;;;;;16.63;100.00;98203.50;7400874;19;20022;-80
2022/11/07 08:57:17;;;;;;;0.90;0.35;;;;;;;16.69;100.00;98187.22;7397829;19;20018;-81
2022/11/07 08:59:43;;;;;;;1.13;0.32;;;;;;;16.76;100.00;98202.59;7399590;19;20018;-82
2022/11/07 09:02:10;;;;;;;1.88;0.10;;;;;;;16.63;100.00;98198.63;7400985;19;20053;-81
2022/11/07 09:04:36;;;;;;;2.15;0.25;;;;;;;16.50;100.00;98200.84;7395614;19;20612;-80
2022/11/07 09:07:03;;;;;;;0.43;0.43;;;;;;;16.61;100.00;98198.41;7394892;19;20398;-82
2022/11/07 09:09:29;;;;;;;1.75;0.57;;;;;;;16.74;100.00;98199.59;7394383;19;20014;-82
2022/11/07 09:11:55;;;;;;;5.28;0.63;;;;;;;16.83;100.00;98208.22;7395090;19;20019;-82
2022/11/07 09:14:21;;;;;;;1.08;0.22;;;;;;;16.86;100.00;98212.00;7395145;19;20053;-81
2022/11/07 09:16:47;;;;;;;2.88;0.77;;;;;;;16.86;100.00;98212.00;7393704;19;20505;-80
2022/11/07 09:19:14;;;;;;;7.18;0.77;;;;;;;16.77;100.00;98215.34;7395517;19;20373;-81
2022/11/07 09:21:41;;;;;;;0.45;0.45;;;;;;;16.71;100.00;98211.94;7398844;19;20018;-83
2022/11/07 09:24:07;;;;;;;3.53;0.90;;;;;;;16.75;100.00;98209.53;7394873;19;20029;-82
2022/11/07 09:26:33;;;;;;;2.83;0.98;;;;;;;16.75;100.00;98213.09;7393574;19;20030;-81
2022/11/07 09:28:59;;;;;;;2.50;0.52;;;;;;;16.84;100.00;98206.19;7397778;19;20477;-82
2022/11/07 09:31:25;;;;;;;0.10;0.10;;;;;;;16.75;100.00;98201.09;7398031;19;20018;-82
2022/11/07 09:33:51;;;;;;;2.90;0.40;;;;;;;16.76;100.00;98211.03;7395096;19;20014;-82
2022/11/07 09:36:17;;;;;;;10.52;2.15;;;;;;;16.88;100.00;98206.56;7396578;19;20714;-82
2022/11/07 09:38:43;;;;;;;4.55;0.85;;;;;;;17.03;100.00;98203.78;7394071;19;20394;-82
2022/11/07 09:41:12;;;;;;;1.58;1.02;;;;;;;17.09;100.00;98209.97;7395718;19;20011;-82
2022/11/07 09:44:03;;;;;;;2.08;0.65;;;;;;;17.13;100.00;98219.53;7393996;19;20524;-81
2022/11/07 09:46:41;;;;;;;1.25;0.22;;;;;;;17.04;100.00;98216.53;7396814;19;20037;-82
2022/11/07 09:49:32;;;;;;;1.65;0.45;;;;;;;17.13;100.00;98218.81;7394522;19;20018;-82
2022/11/07 09:52:11;;;;;;;1.27;0.32;;;;;;;17.31;100.00;98223.31;7393930;19;20037;-81
2022/11/07 09:54:44;;;;;;;4.03;1.85;;;;;;;17.34;100.00;98222.22;7398341;19;20033;-81
2022/11/07 09:57:18;;;;;;;0.43;0.10;;;;;;;17.35;100.00;98235.72;7393220;19;20015;-83
2022/11/07 09:59:48;;;;;;;6.65;0.90;;;;;;;17.39;100.00;98229.69;7395985;19;20087;-82
2022/11/07 10:02:17;;;;;;;1.98;1.13;;;;;;;17.52;100.00;98229.56;7396894;19;20048;-83
2022/11/07 10:04:45;;;;;;;0.52;0.52;;;;;;;17.55;100.00;98244.56;7396262;19;20038;-81
2022/11/07 10:07:48;;;;;;;0.55;0.10;;;;;;;17.66;100.00;98230.88;7394431;19;20022;-82
2022/11/07 10:10:23;;;;;;;7.57;0.35;;;;;;;17.56;100.00;98238.41;7392950;19;20013;-82
2022/11/07 10:12:58;;;;;;;0.68;0.45;;;;;;;17.64;100.00;98244.78;7393664;19;20415;-82
2022/11/07 10:15:38;;;;;;;1.50;0.35;;;;;;;17.72;100.00;98228.63;7393916;19;20027;-82
2022/11/07 10:18:08;;;;;;;10.05;0.95;;;;;;;17.70;100.00;98241.75;7393176;19;20082;-84
2022/11/07 10:20:59;;;;;;;4.57;1.55;;;;;;;17.81;100.00;98225.25;7394266;19;20712;-82
2022/11/07 10:24:04;;;;;;;0.20;0.10;;;;;;;17.82;100.00;98238.00;7394924;19;20014;-83
2022/11/07 10:26:31;;;;;;;7.03;0.65;;;;;;;17.88;100.00;98241.38;7393359;19;20022;-82
2022/11/07 10:29:10;;;;;;;1.40;0.32;;;;;;;17.75;100.00;98232.38;7397857;19;20082;-82
2022/11/07 10:31:42;;;;;;;4.50;0.60;;;;;;;17.76;100.00;98248.69;7396222;19;20119;-83
2022/11/07 10:34:19;;;;;;;2.10;0.50;;;;;;;17.78;100.00;98248.88;7393620;19;20335;-83
2022/11/07 10:36:46;;;;;;;0.95;0.43;;;;;;;17.78;100.00;98254.53;7393049;19;20538;-83
2022/11/07 10:39:17;;;;;;;5.43;0.68;;;;;;;17.82;100.00;98249.25;7393310;19;20015;-83
2022/11/07 10:41:50;;;;;;;3.80;1.35;;;;;;;17.82;100.00;98246.44;7397718;19;20026;-83
2022/11/07 10:44:23;;;;;;;10.70;0.40;;;;;;;17.79;100.00;98247.59;7393299;19;20316;-82
2022/11/07 10:46:49;;;;;;;0.20;0.20;;;;;;;18.00;100.00;98248.13;7393565;19;20010;-83
2022/11/07 10:49:30;;;;;;;1.63;0.13;;;;;;;18.07;100.00;98240.97;7393936;19;20034;-83
2022/11/07 10:52:16;;;;;;;0.85;0.32;;;;;;;18.12;100.00;98243.63;7392366;19;20032;-82
2022/11/07 10:54:43;;;;;;;1.13;0.50;;;;;;;18.20;100.00;98240.75;7395645;19;20052;-82
2022/11/07 10:57:18;;;;;;;4.28;0.40;;;;;;;18.25;100.00;98241.88;7395285;19;20014;-83
2022/11/07 10:59:55;;;;;;;2.55;0.75;;;;;;;18.42;100.00;98242.78;7392490;19;20026;-83
2022/11/07 11:02:24;;;;;;;1.38;1.15;;;;;;;18.52;100.00;98232.44;7393554;19;20472;-82
2022/11/07 11:04:53;;;;;;;0.43;0.28;;;;;;;18.47;100.00;98235.47;7393023;19;20018;-83
2022/11/07 11:07:23;;;;;;;0.20;0.20;;;;;;;18.57;100.00;98236.34;7392842;19;20017;-83
2022/11/07 11:09:54;;;;;;;1.23;0.32;;;;;;;18.61;100.00;98236.72;7393874;19;20044;-83
2022/11/07 11:12:27;;;;;;;0.98;0.40;;;;;;;18.67;100.00;98228.78;7390728;19;20014;-83
2022/11/07 11:15:13;;;;;;;2.63;1.13;;;;;;;18.82;100.00;98234.34;7393381;19;20353;-83
2022/11/07 11:17:39;;;;;;;1.98;0.47;;;;;;;18.84;100.00;98238.13;7392186;19;20361;-83
2022/11/07 11:20:26;;;;;;;10.55;0.30;;;;;;;18.96;100.00;98227.16;7394168;19;20025;-83
2022/11/07 11:22:53;;;;;;;1.35;0.35;;;;;;;19.16;100.00;98228.94;7388844;19;20104;-83
2022/11/07 11:25:20;;;;;;;1.27;0.52;;;;;;;19.21;100.00;98230.75;7392242;19;20014;-82
2022/11/07 11:28:02;;;;;;;3.03;0.68;;;;;;;18.92;100.00;98221.16;7393291;19;20109;-83
2022/11/07 11:30:31;;;;;;;0.85;0.57;;;;;;;19.16;100.00;98234.56;7394053;19;20019;-83
2022/11/07 11:33:24;;;;;;;0.10;0.03;;;;;;;19.04;100.00;98232.75;7390063;19;20014;-82
2022/11/07 11:35:56;;;;;;;1.73;0.40;;;;;;;19.14;100.00;98233.66;7393013;19;20026;-83
2022/11/07 11:38:36;;;;;;;0.25;0.22;;;;;;;19.17;100.00;98219.13;7392947;19;20015;-83